sensor_id;sensor_type;location;lat;lon;timestamp;pressure;altitude;pressure_sealevel;temperature;humidity
70506;BME280;58032;49.820;6.274;2022-09-12T00:00:13;97801.88;;;10.05;100.00
70506;BME280;58032;49.820;6.274;2022-09-12T00:02:41;97805.84;;;10.07;100.00
70506;BME280;58032;49.820;6.274;2022-09-12T00:05:08;97806.63;;;10.08;100.00
70506;BME280;58032;49.820;6.274;2022-09-12T00:07:35;97798.06;;;9.98;100.00
70506;BME280;58032;49.820;6.274;2022-09-12T00:10:02;97794.38;;;9.89;100.00
70506;BME280;58032;49.820;6.274;2022-09-12T00:12:29;97791.66;;;9.85;100.00
70506;BME280;58032;49.820;6.274;2022-09-12T00:14:56;97797.84;;;9.93;100.00
70506;BME280;58032;49.820;6.274;2022-09-12T00:17:23;97790.53;;;9.95;100.00
70506;BME280;58032;49.820;6.274;2022-09-12T00:19:50;97785.16;;;9.88;100.00
70506;BME280;58032;49.820;6.274;2022-09-12T00:22:17;97796.25;;;10.05;100.00
70506;BME280;58032;49.820;6.274;2022-09-12T00:24:44;97789.50;;;10.15;100.00
70506;BME280;58032;49.820;6.274;2022-09-12T00:27:11;97790.97;;;10.20;100.00
70506;BME280;58032;49.820;6.274;2022-09-12T00:29:38;97785.81;;;10.18;100.00
70506;BME280;58032;49.820;6.274;2022-09-12T00:32:05;97783.53;;;10.13;100.00
70506;BME280;58032;49.820;6.274;2022-09-12T00:34:32;97779.59;;;9.97;100.00
70506;BME280;58032;49.820;6.274;2022-09-12T00:36:59;97780.28;;;9.76;100.00
70506;BME280;58032;49.820;6.274;2022-09-12T00:39:26;97786.56;;;9.54;100.00
70506;BME280;58032;49.820;6.274;2022-09-12T00:41:53;97788.78;;;9.46;100.00
70506;BME280;58032;49.820;6.274;2022-09-12T00:46:53;97781.06;;;9.50;100.00
70506;BME280;58032;49.820;6.274;2022-09-12T00:49:47;97767.34;;;9.53;100.00
70506;BME280;58032;49.820;6.274;2022-09-12T00:52:33;97769.84;;;9.63;100.00
70506;BME280;58032;49.820;6.274;2022-09-12T00:55:14;97764.34;;;9.73;100.00
70506;BME280;58032;49.820;6.274;2022-09-12T00:57:49;97764.88;;;9.80;100.00
70506;BME280;58032;49.820;6.274;2022-09-12T01:00:22;97773.78;;;9.79;100.00
70506;BME280;58032;49.820;6.274;2022-09-12T01:03:16;97762.06;;;9.80;100.00
70506;BME280;58032;49.820;6.274;2022-09-12T01:08:26;97762.41;;;9.70;100.00
70506;BME280;58032;49.820;6.274;2022-09-12T01:10:55;97753.28;;;9.65;100.00
70506;BME280;58032;49.820;6.274;2022-09-12T01:13:23;97758.56;;;9.50;100.00
70506;BME280;58032;49.820;6.274;2022-09-12T01:15:50;97746.06;;;9.39;100.00
70506;BME280;58032;49.820;6.274;2022-09-12T01:21:17;97749.03;;;9.48;100.00
70506;BME280;58032;49.820;6.274;2022-09-12T01:37:38;97738.75;;;9.15;100.00
70506;BME280;58032;49.820;6.274;2022-09-12T01:40:11;97731.31;;;9.09;100.00
70506;BME280;58032;49.820;6.274;2022-09-12T01:45:50;97735.91;;;9.02;100.00
70506;BME280;58032;49.820;6.274;2022-09-12T01:48:21;97742.75;;;9.01;100.00
70506;BME280;58032;49.820;6.274;2022-09-12T01:51:03;97734.66;;;9.03;100.00
70506;BME280;58032;49.820;6.274;2022-09-12T01:54:01;97730.28;;;9.02;100.00
70506;BME280;58032;49.820;6.274;2022-09-12T01:56:34;97728.50;;;9.09;100.00
70506;BME280;58032;49.820;6.274;2022-09-12T01:59:09;97732.88;;;9.10;100.00
70506;BME280;58032;49.820;6.274;2022-09-12T02:01:50;97732.28;;;9.02;100.00
70506;BME280;58032;49.820;6.274;2022-09-12T02:04:24;97730.00;;;8.84;100.00
70506;BME280;58032;49.820;6.274;2022-09-12T02:07:11;97727.22;;;8.67;100.00
70506;BME280;58032;49.820;6.274;2022-09-12T02:09:45;97723.03;;;8.59;100.00
70506;BME280;58032;49.820;6.274;2022-09-12T02:12:17;97720.50;;;8.65;100.00
70506;BME280;58032;49.820;6.274;2022-09-12T02:14:52;97715.81;;;8.75;100.00
70506;BME280;58032;49.820;6.274;2022-09-12T02:17:22;97721.78;;;8.77;100.00
70506;BME280;58032;49.820;6.274;2022-09-12T02:19:57;97722.91;;;8.79;100.00
70506;BME280;58032;49.820;6.274;2022-09-12T02:22:28;97711.66;;;8.79;100.00
70506;BME280;58032;49.820;6.274;2022-09-12T02:24:59;97720.44;;;8.81;100.00
70506;BME280;58032;49.820;6.274;2022-09-12T02:27:34;97715.69;;;8.78;100.00
70506;BME280;58032;49.820;6.274;2022-09-12T02:30:07;97723.56;;;8.70;100.00
70506;BME280;58032;49.820;6.274;2022-09-12T02:33:02;97710.19;;;8.75;100.00
70506;BME280;58032;49.820;6.274;2022-09-12T02:38:13;97714.72;;;8.85;100.00
70506;BME280;58032;49.820;6.274;2022-09-12T02:40:45;97713.84;;;8.88;100.00
70506;BME280;58032;49.820;6.274;2022-09-12T02:43:12;97708.91;;;8.92;100.00
70506;BME280;58032;49.820;6.274;2022-09-12T02:45:39;97711.97;;;8.98;100.00
70506;BME280;58032;49.820;6.274;2022-09-12T02:48:14;97706.34;;;8.98;100.00
70506;BME280;58032;49.820;6.274;2022-09-12T02:50:43;97709.69;;;8.93;100.00
70506;BME280;58032;49.820;6.274;2022-09-12T02:53:10;97710.59;;;8.90;100.00
70506;BME280;58032;49.820;6.274;2022-09-12T02:55:39;97710.09;;;8.78;100.00
70506;BME280;58032;49.820;6.274;2022-09-12T02:58:11;97715.31;;;8.63;100.00
70506;BME280;58032;49.820;6.274;2022-09-12T03:06:36;97709.63;;;8.67;100.00
70506;BME280;58032;49.820;6.274;2022-09-12T03:09:11;97702.94;;;8.77;100.00
70506;BME280;58032;49.820;6.274;2022-09-12T03:18:19;97697.84;;;8.72;100.00
70506;BME280;58032;49.820;6.274;2022-09-12T03:20:59;97699.56;;;8.53;100.00
70506;BME280;58032;49.820;6.274;2022-09-12T03:29:17;97693.94;;;8.53;100.00
70506;BME280;58032;49.820;6.274;2022-09-12T03:31:49;97697.72;;;8.46;100.00
70506;BME280;58032;49.820;6.274;2022-09-12T03:34:18;97696.50;;;8.47;100.00
70506;BME280;58032;49.820;6.274;2022-09-12T03:36:46;97697.97;;;8.52;100.00
70506;BME280;58032;49.820;6.274;2022-09-12T03:39:14;97697.09;;;8.55;100.00
70506;BME280;58032;49.820;6.274;2022-09-12T03:41:41;97687.00;;;8.58;100.00
70506;BME280;58032;49.820;6.274;2022-09-12T03:44:08;97693.34;;;8.45;100.00
70506;BME280;58032;49.820;6.274;2022-09-12T03:46:35;97692.16;;;8.30;100.00
70506;BME280;58032;49.820;6.274;2022-09-12T03:49:02;97689.09;;;8.24;100.00
70506;BME280;58032;49.820;6.274;2022-09-12T03:51:29;97687.50;;;8.23;100.00
70506;BME280;58032;49.820;6.274;2022-09-12T03:53:56;97685.84;;;8.26;100.00
70506;BME280;58032;49.820;6.274;2022-09-12T03:56:23;97682.69;;;8.23;100.00
70506;BME280;58032;49.820;6.274;2022-09-12T03:58:50;97683.38;;;8.28;100.00
70506;BME280;58032;49.820;6.274;2022-09-12T04:01:18;97684.41;;;8.34;100.00
70506;BME280;58032;49.820;6.274;2022-09-12T04:03:48;97675.03;;;8.40;100.00
70506;BME280;58032;49.820;6.274;2022-09-12T04:06:20;97673.69;;;8.45;100.00
70506;BME280;58032;49.820;6.274;2022-09-12T04:08:51;97675.22;;;8.50;100.00
70506;BME280;58032;49.820;6.274;2022-09-12T04:11:20;97678.78;;;8.50;100.00
70506;BME280;58032;49.820;6.274;2022-09-12T04:13:48;97683.06;;;8.55;100.00
70506;BME280;58032;49.820;6.274;2022-09-12T04:16:15;97674.19;;;8.57;100.00
70506;BME280;58032;49.820;6.274;2022-09-12T04:18:44;97668.34;;;8.51;100.00
70506;BME280;58032;49.820;6.274;2022-09-12T04:21:17;97671.22;;;8.18;100.00
70506;BME280;58032;49.820;6.274;2022-09-12T04:23:44;97665.50;;;8.21;100.00
70506;BME280;58032;49.820;6.274;2022-09-12T04:26:12;97667.50;;;8.21;100.00
70506;BME280;58032;49.820;6.274;2022-09-12T04:28:40;97663.69;;;8.15;100.00
70506;BME280;58032;49.820;6.274;2022-09-12T04:31:10;97666.66;;;8.07;100.00
70506;BME280;58032;49.820;6.274;2022-09-12T04:33:38;97668.69;;;8.07;100.00
70506;BME280;58032;49.820;6.274;2022-09-12T04:36:07;97668.78;;;8.03;100.00
70506;BME280;58032;49.820;6.274;2022-09-12T04:38:35;97664.91;;;7.97;100.00
70506;BME280;58032;49.820;6.274;2022-09-12T04:41:17;97667.91;;;8.06;100.00
70506;BME280;58032;49.820;6.274;2022-09-12T04:43:46;97665.44;;;8.08;100.00
70506;BME280;58032;49.820;6.274;2022-09-12T04:46:16;97660.47;;;8.00;100.00
70506;BME280;58032;49.820;6.274;2022-09-12T04:48:46;97660.56;;;7.96;100.00
70506;BME280;58032;49.820;6.274;2022-09-12T04:51:19;97659.50;;;7.90;100.00
70506;BME280;58032;49.820;6.274;2022-09-12T04:53:48;97665.09;;;7.90;100.00
70506;BME280;58032;49.820;6.274;2022-09-12T04:56:16;97657.59;;;7.87;100.00
70506;BME280;58032;49.820;6.274;2022-09-12T04:58:45;97650.31;;;7.89;100.00
70506;BME280;58032;49.820;6.274;2022-09-12T05:01:14;97660.03;;;7.85;100.00
70506;BME280;58032;49.820;6.274;2022-09-12T05:03:42;97651.81;;;7.78;100.00
70506;BME280;58032;49.820;6.274;2022-09-12T05:06:13;97653.56;;;7.71;100.00
70506;BME280;58032;49.820;6.274;2022-09-12T05:08:40;97647.97;;;7.71;100.00
70506;BME280;58032;49.820;6.274;2022-09-12T05:11:10;97646.13;;;7.81;100.00
70506;BME280;58032;49.820;6.274;2022-09-12T05:13:38;97651.53;;;7.88;100.00
70506;BME280;58032;49.820;6.274;2022-09-12T05:16:07;97646.56;;;7.96;100.00
70506;BME280;58032;49.820;6.274;2022-09-12T05:18:35;97646.16;;;8.11;100.00
70506;BME280;58032;49.820;6.274;2022-09-12T05:21:05;97655.34;;;8.11;100.00
70506;BME280;58032;49.820;6.274;2022-09-12T05:23:32;97650.56;;;8.12;100.00
70506;BME280;58032;49.820;6.274;2022-09-12T05:26:00;97655.47;;;8.07;100.00
70506;BME280;58032;49.820;6.274;2022-09-12T05:28:31;97657.91;;;8.05;100.00
70506;BME280;58032;49.820;6.274;2022-09-12T05:31:07;97645.81;;;8.08;100.00
70506;BME280;58032;49.820;6.274;2022-09-12T05:33:36;97658.69;;;8.22;100.00
70506;BME280;58032;49.820;6.274;2022-09-12T05:36:05;97650.72;;;8.50;100.00
70506;BME280;58032;49.820;6.274;2022-09-12T05:38:36;97650.41;;;8.61;100.00
70506;BME280;58032;49.820;6.274;2022-09-12T05:41:08;97651.47;;;8.80;100.00
70506;BME280;58032;49.820;6.274;2022-09-12T05:43:40;97650.63;;;8.96;100.00
70506;BME280;58032;49.820;6.274;2022-09-12T05:46:12;97639.59;;;9.02;100.00
70506;BME280;58032;49.820;6.274;2022-09-12T05:48:41;97644.00;;;9.03;100.00
70506;BME280;58032;49.820;6.274;2022-09-12T05:51:12;97654.66;;;9.08;100.00
70506;BME280;58032;49.820;6.274;2022-09-12T05:53:40;97660.38;;;8.92;100.00
70506;BME280;58032;49.820;6.274;2022-09-12T05:56:09;97658.34;;;8.92;100.00
70506;BME280;58032;49.820;6.274;2022-09-12T05:58:39;97671.47;;;8.82;100.00
70506;BME280;58032;49.820;6.274;2022-09-12T06:01:12;97661.94;;;8.80;100.00
70506;BME280;58032;49.820;6.274;2022-09-12T06:03:42;97663.97;;;8.92;100.00
70506;BME280;58032;49.820;6.274;2022-09-12T06:06:11;97671.31;;;9.02;100.00
70506;BME280;58032;49.820;6.274;2022-09-12T06:08:41;97669.50;;;9.09;100.00
70506;BME280;58032;49.820;6.274;2022-09-12T06:11:12;97679.06;;;9.24;100.00
70506;BME280;58032;49.820;6.274;2022-09-12T06:13:41;97675.25;;;9.44;100.00
70506;BME280;58032;49.820;6.274;2022-09-12T06:18:39;97683.47;;;10.12;100.00
70506;BME280;58032;49.820;6.274;2022-09-12T06:21:09;97676.91;;;10.41;100.00
70506;BME280;58032;49.820;6.274;2022-09-12T06:23:38;97685.09;;;10.70;100.00
70506;BME280;58032;49.820;6.274;2022-09-12T06:26:07;97677.56;;;11.12;100.00
70506;BME280;58032;49.820;6.274;2022-09-12T06:28:37;97681.41;;;11.27;100.00
70506;BME280;58032;49.820;6.274;2022-09-12T06:31:51;97679.63;;;11.52;100.00
70506;BME280;58032;49.820;6.274;2022-09-12T06:34:01;97675.81;;;11.77;100.00
70506;BME280;58032;49.820;6.274;2022-09-12T06:36:36;97674.53;;;11.69;100.00
70506;BME280;58032;49.820;6.274;2022-09-12T06:39:06;97679.72;;;11.39;100.00
70506;BME280;58032;49.820;6.274;2022-09-12T06:41:33;97669.91;;;11.44;100.00
70506;BME280;58032;49.820;6.274;2022-09-12T06:44:01;97676.06;;;10.98;100.00
70506;BME280;58032;49.820;6.274;2022-09-12T06:46:29;97684.19;;;10.73;100.00
70506;BME280;58032;49.820;6.274;2022-09-12T06:48:57;97677.13;;;10.69;100.00
70506;BME280;58032;49.820;6.274;2022-09-12T06:51:26;97681.13;;;11.03;100.00
70506;BME280;58032;49.820;6.274;2022-09-12T06:53:55;97674.97;;;11.27;100.00
70506;BME280;58032;49.820;6.274;2022-09-12T06:56:25;97672.13;;;11.17;100.00
70506;BME280;58032;49.820;6.274;2022-09-12T06:58:54;97674.59;;;11.15;100.00
70506;BME280;58032;49.820;6.274;2022-09-12T07:01:24;97671.66;;;11.19;100.00
70506;BME280;58032;49.820;6.274;2022-09-12T07:03:56;97677.06;;;11.35;100.00
70506;BME280;58032;49.820;6.274;2022-09-12T07:06:27;97675.00;;;11.36;100.00
70506;BME280;58032;49.820;6.274;2022-09-12T07:08:58;97670.88;;;11.18;100.00
70506;BME280;58032;49.820;6.274;2022-09-12T07:11:28;97661.56;;;11.08;100.00
70506;BME280;58032;49.820;6.274;2022-09-12T07:13:58;97671.81;;;11.56;100.00
70506;BME280;58032;49.820;6.274;2022-09-12T07:16:26;97664.41;;;11.90;100.00
70506;BME280;58032;49.820;6.274;2022-09-12T07:18:59;97669.50;;;12.14;100.00
70506;BME280;58032;49.820;6.274;2022-09-12T07:21:27;97658.22;;;12.51;100.00
70506;BME280;58032;49.820;6.274;2022-09-12T07:23:55;97652.59;;;13.40;100.00
70506;BME280;58032;49.820;6.274;2022-09-12T07:26:25;97650.69;;;13.28;100.00
70506;BME280;58032;49.820;6.274;2022-09-12T07:28:53;97635.31;;;13.96;100.00
70506;BME280;58032;49.820;6.274;2022-09-12T07:31:27;97638.06;;;14.30;100.00
70506;BME280;58032;49.820;6.274;2022-09-12T07:33:54;97639.88;;;14.42;100.00
70506;BME280;58032;49.820;6.274;2022-09-12T07:36:23;97641.38;;;13.80;100.00
70506;BME280;58032;49.820;6.274;2022-09-12T07:38:55;97640.25;;;14.11;100.00
70506;BME280;58032;49.820;6.274;2022-09-12T07:41:26;97641.03;;;13.87;100.00
70506;BME280;58032;49.820;6.274;2022-09-12T07:43:54;97639.47;;;15.03;100.00
70506;BME280;58032;49.820;6.274;2022-09-12T07:46:23;97631.56;;;14.78;100.00
70506;BME280;58032;49.820;6.274;2022-09-12T07:48:51;97641.22;;;14.07;100.00
70506;BME280;58032;49.820;6.274;2022-09-12T07:51:19;97642.84;;;13.99;100.00
70506;BME280;58032;49.820;6.274;2022-09-12T07:53:46;97643.25;;;14.31;100.00
70506;BME280;58032;49.820;6.274;2022-09-12T07:56:15;97645.97;;;14.01;100.00
70506;BME280;58032;49.820;6.274;2022-09-12T07:58:43;97638.19;;;14.35;100.00
70506;BME280;58032;49.820;6.274;2022-09-12T08:01:12;97630.00;;;14.37;100.00
70506;BME280;58032;49.820;6.274;2022-09-12T08:03:41;97642.09;;;14.38;100.00
70506;BME280;58032;49.820;6.274;2022-09-12T08:06:10;97636.78;;;14.55;100.00
70506;BME280;58032;49.820;6.274;2022-09-12T08:08:37;97641.81;;;14.90;100.00
70506;BME280;58032;49.820;6.274;2022-09-12T08:11:08;97640.06;;;15.08;100.00
70506;BME280;58032;49.820;6.274;2022-09-12T08:13:36;97639.16;;;15.46;100.00
70506;BME280;58032;49.820;6.274;2022-09-12T08:16:06;97635.88;;;15.69;100.00
70506;BME280;58032;49.820;6.274;2022-09-12T08:18:34;97636.94;;;15.86;100.00
70506;BME280;58032;49.820;6.274;2022-09-12T08:21:11;97636.91;;;15.50;100.00
70506;BME280;58032;49.820;6.274;2022-09-12T08:23:38;97639.59;;;15.60;100.00
70506;BME280;58032;49.820;6.274;2022-09-12T08:26:05;97649.69;;;16.11;100.00
70506;BME280;58032;49.820;6.274;2022-09-12T08:28:34;97650.13;;;15.89;100.00
70506;BME280;58032;49.820;6.274;2022-09-12T08:31:03;97656.13;;;16.33;100.00
70506;BME280;58032;49.820;6.274;2022-09-12T08:33:33;97666.63;;;16.68;100.00
70506;BME280;58032;49.820;6.274;2022-09-12T08:36:12;97654.44;;;16.88;100.00
70506;BME280;58032;49.820;6.274;2022-09-12T08:38:42;97660.06;;;16.82;100.00
70506;BME280;58032;49.820;6.274;2022-09-12T08:46:34;97647.97;;;16.87;100.00
70506;BME280;58032;49.820;6.274;2022-09-12T08:49:04;97638.69;;;17.13;100.00
70506;BME280;58032;49.820;6.274;2022-09-12T08:51:35;97637.94;;;17.18;100.00
70506;BME280;58032;49.820;6.274;2022-09-12T08:54:04;97638.25;;;16.94;100.00
70506;BME280;58032;49.820;6.274;2022-09-12T08:56:37;97632.19;;;16.86;100.00
70506;BME280;58032;49.820;6.274;2022-09-12T08:59:04;97634.19;;;17.01;100.00
70506;BME280;58032;49.820;6.274;2022-09-12T09:01:36;97634.50;;;17.40;100.00
70506;BME280;58032;49.820;6.274;2022-09-12T09:12:56;97625.97;;;17.78;100.00
70506;BME280;58032;49.820;6.274;2022-09-12T09:20:52;97617.94;;;17.77;100.00
70506;BME280;58032;49.820;6.274;2022-09-12T09:23:28;97612.44;;;18.05;100.00
70506;BME280;58032;49.820;6.274;2022-09-12T09:26:12;97607.50;;;18.00;100.00
70506;BME280;58032;49.820;6.274;2022-09-12T09:28:49;97605.25;;;18.15;100.00
70506;BME280;58032;49.820;6.274;2022-09-12T09:31:19;97605.50;;;18.17;100.00
70506;BME280;58032;49.820;6.274;2022-09-12T09:33:48;97608.44;;;18.34;100.00
70506;BME280;58032;49.820;6.274;2022-09-12T09:36:40;97603.03;;;18.54;100.00
70506;BME280;58032;49.820;6.274;2022-09-12T09:39:23;97596.00;;;18.43;100.00
70506;BME280;58032;49.820;6.274;2022-09-12T09:45:10;97587.75;;;18.57;100.00
70506;BME280;58032;49.820;6.274;2022-09-12T09:47:38;97588.81;;;18.71;100.00
70506;BME280;58032;49.820;6.274;2022-09-12T09:50:05;97579.69;;;18.49;100.00
70506;BME280;58032;49.820;6.274;2022-09-12T09:52:34;97586.50;;;18.80;100.00
70506;BME280;58032;49.820;6.274;2022-09-12T09:55:01;97585.22;;;18.87;100.00
70506;BME280;58032;49.820;6.274;2022-09-12T10:00:35;97576.91;;;18.89;100.00
70506;BME280;58032;49.820;6.274;2022-09-12T10:05:50;97573.34;;;19.00;100.00
70506;BME280;58032;49.820;6.274;2022-09-12T10:08:24;97561.91;;;19.28;100.00
70506;BME280;58032;49.820;6.274;2022-09-12T10:11:06;97569.16;;;19.29;100.00
70506;BME280;58032;49.820;6.274;2022-09-12T10:13:40;97564.50;;;19.49;100.00
70506;BME280;58032;49.820;6.274;2022-09-12T10:16:28;97564.94;;;19.70;100.00
70506;BME280;58032;49.820;6.274;2022-09-12T10:18:57;97566.28;;;19.46;100.00
70506;BME280;58032;49.820;6.274;2022-09-12T10:26:56;97567.78;;;19.93;100.00
70506;BME280;58032;49.820;6.274;2022-09-12T10:29:29;97562.56;;;20.03;100.00
70506;BME280;58032;49.820;6.274;2022-09-12T10:32:03;97565.44;;;19.91;100.00
70506;BME280;58032;49.820;6.274;2022-09-12T10:34:42;97556.38;;;19.70;100.00
70506;BME280;58032;49.820;6.274;2022-09-12T10:37:23;97564.94;;;19.87;100.00
70506;BME280;58032;49.820;6.274;2022-09-12T10:39:56;97561.28;;;19.92;100.00
70506;BME280;58032;49.820;6.274;2022-09-12T10:43:00;97559.97;;;19.99;100.00
70506;BME280;58032;49.820;6.274;2022-09-12T10:45:33;97561.50;;;20.00;100.00
70506;BME280;58032;49.820;6.274;2022-09-12T10:48:27;97559.63;;;20.20;100.00
70506;BME280;58032;49.820;6.274;2022-09-12T10:50:55;97548.91;;;20.32;100.00
70506;BME280;58032;49.820;6.274;2022-09-12T11:06:37;97539.34;;;20.65;100.00
70506;BME280;58032;49.820;6.274;2022-09-12T11:17:21;97540.44;;;20.98;97.59
70506;BME280;58032;49.820;6.274;2022-09-12T11:34:09;97529.97;;;21.07;86.61
70506;BME280;58032;49.820;6.274;2022-09-12T11:37:16;97516.22;;;21.30;89.20
70506;BME280;58032;49.820;6.274;2022-09-12T11:39:47;97519.44;;;21.21;83.02
70506;BME280;58032;49.820;6.274;2022-09-12T11:42:29;97510.41;;;21.66;88.74
70506;BME280;58032;49.820;6.274;2022-09-12T11:45:11;97515.88;;;21.39;73.23
70506;BME280;58032;49.820;6.274;2022-09-12T11:47:40;97509.00;;;21.23;76.32
70506;BME280;58032;49.820;6.274;2022-09-12T11:50:20;97513.78;;;21.40;87.40
70506;BME280;58032;49.820;6.274;2022-09-12T11:52:50;97519.13;;;21.24;90.53
70506;BME280;58032;49.820;6.274;2022-09-12T11:55:22;97512.00;;;21.37;91.16
70506;BME280;58032;49.820;6.274;2022-09-12T11:57:57;97516.47;;;21.32;93.27
70506;BME280;58032;49.820;6.274;2022-09-12T12:00:41;97517.28;;;21.57;88.87
70506;BME280;58032;49.820;6.274;2022-09-12T12:03:19;97514.53;;;21.71;85.40
70506;BME280;58032;49.820;6.274;2022-09-12T12:06:02;97513.34;;;21.60;92.27
70506;BME280;58032;49.820;6.274;2022-09-12T12:08:37;97507.84;;;21.62;92.63
70506;BME280;58032;49.820;6.274;2022-09-12T12:11:06;97498.56;;;21.50;92.51
70506;BME280;58032;49.820;6.274;2022-09-12T12:13:48;97495.38;;;21.60;88.65
70506;BME280;58032;49.820;6.274;2022-09-12T12:18:59;97494.97;;;21.19;94.20
70506;BME280;58032;49.820;6.274;2022-09-12T12:21:42;97499.16;;;21.43;96.46
70506;BME280;58032;49.820;6.274;2022-09-12T12:24:19;97495.41;;;21.54;92.91
70506;BME280;58032;49.820;6.274;2022-09-12T12:34:40;97484.44;;;21.83;92.20
70506;BME280;58032;49.820;6.274;2022-09-12T12:40:08;97481.75;;;22.10;79.81
70506;BME280;58032;49.820;6.274;2022-09-12T12:48:09;97465.06;;;21.89;91.45
70506;BME280;58032;49.820;6.274;2022-09-12T12:50:40;97465.00;;;22.14;89.96
70506;BME280;58032;49.820;6.274;2022-09-12T12:55:48;97446.75;;;22.30;89.45
70506;BME280;58032;49.820;6.274;2022-09-12T12:58:37;97445.81;;;22.60;84.02
70506;BME280;58032;49.820;6.274;2022-09-12T13:01:17;97446.41;;;22.40;75.69
70506;BME280;58032;49.820;6.274;2022-09-12T13:03:51;97447.31;;;22.29;73.43
70506;BME280;58032;49.820;6.274;2022-09-12T13:09:02;97444.31;;;22.73;66.82
70506;BME280;58032;49.820;6.274;2022-09-12T13:11:34;97442.84;;;22.99;70.99
70506;BME280;58032;49.820;6.274;2022-09-12T13:14:04;97446.53;;;22.67;71.14
70506;BME280;58032;49.820;6.274;2022-09-12T13:16:35;97442.94;;;22.60;62.26
70506;BME280;58032;49.820;6.274;2022-09-12T13:19:06;97444.72;;;22.64;60.96
70506;BME280;58032;49.820;6.274;2022-09-12T13:21:34;97439.25;;;22.79;61.89
70506;BME280;58032;49.820;6.274;2022-09-12T13:24:12;97440.72;;;22.53;59.32
70506;BME280;58032;49.820;6.274;2022-09-12T13:26:43;97432.16;;;22.67;70.98
70506;BME280;58032;49.820;6.274;2022-09-12T13:29:20;97423.72;;;22.55;64.71
70506;BME280;58032;49.820;6.274;2022-09-12T13:31:52;97426.06;;;22.38;63.87
70506;BME280;58032;49.820;6.274;2022-09-12T13:34:23;97420.50;;;22.78;67.50
70506;BME280;58032;49.820;6.274;2022-09-12T13:37:03;97417.38;;;22.76;59.32
70506;BME280;58032;49.820;6.274;2022-09-12T13:47:42;97417.53;;;22.97;62.46
70506;BME280;58032;49.820;6.274;2022-09-12T13:50:22;97427.44;;;23.55;60.85
70506;BME280;58032;49.820;6.274;2022-09-12T13:52:59;97422.59;;;23.64;58.89
70506;BME280;58032;49.820;6.274;2022-09-12T13:58:01;97414.19;;;24.48;58.08
70506;BME280;58032;49.820;6.274;2022-09-12T14:00:30;97417.66;;;25.10;53.60
70506;BME280;58032;49.820;6.274;2022-09-12T14:02:58;97408.19;;;25.60;48.19
70506;BME280;58032;49.820;6.274;2022-09-12T14:05:50;97407.66;;;24.83;48.15
70506;BME280;58032;49.820;6.274;2022-09-12T14:08:21;97402.38;;;25.23;50.77
70506;BME280;58032;49.820;6.274;2022-09-12T14:10:49;97406.81;;;25.90;47.34
70506;BME280;58032;49.820;6.274;2022-09-12T14:13:25;97398.91;;;24.96;48.18
70506;BME280;58032;49.820;6.274;2022-09-12T14:15:53;97397.09;;;26.09;45.90
70506;BME280;58032;49.820;6.274;2022-09-12T14:18:29;97386.56;;;25.74;43.86
70506;BME280;58032;49.820;6.274;2022-09-12T14:21:10;97392.19;;;24.72;47.52
70506;BME280;58032;49.820;6.274;2022-09-12T14:23:41;97378.50;;;26.41;45.96
70506;BME280;58032;49.820;6.274;2022-09-12T14:26:12;97376.03;;;25.48;46.50
70506;BME280;58032;49.820;6.274;2022-09-12T14:28:43;97381.44;;;25.96;45.48
70506;BME280;58032;49.820;6.274;2022-09-12T14:33:50;97373.41;;;25.66;44.34
70506;BME280;58032;49.820;6.274;2022-09-12T14:36:26;97366.72;;;26.23;45.27
70506;BME280;58032;49.820;6.274;2022-09-12T14:38:59;97373.72;;;25.18;46.99
70506;BME280;58032;49.820;6.274;2022-09-12T14:41:30;97379.16;;;25.58;46.09
70506;BME280;58032;49.820;6.274;2022-09-12T14:43:59;97377.06;;;25.29;43.88
70506;BME280;58032;49.820;6.274;2022-09-12T14:46:33;97373.69;;;25.39;45.64
70506;BME280;58032;49.820;6.274;2022-09-12T14:51:57;97366.97;;;25.81;42.82
70506;BME280;58032;49.820;6.274;2022-09-12T14:57:01;97368.19;;;25.27;44.95
70506;BME280;58032;49.820;6.274;2022-09-12T15:02:19;97363.38;;;25.51;42.89
70506;BME280;58032;49.820;6.274;2022-09-12T15:07:35;97374.53;;;24.97;43.15
70506;BME280;58032;49.820;6.274;2022-09-12T15:10:05;97375.66;;;25.52;42.48
70506;BME280;58032;49.820;6.274;2022-09-12T15:12:32;97368.09;;;25.12;39.51
70506;BME280;58032;49.820;6.274;2022-09-12T15:15:11;97370.13;;;24.75;42.96
70506;BME280;58032;49.820;6.274;2022-09-12T15:17:38;97371.63;;;24.33;43.83
70506;BME280;58032;49.820;6.274;2022-09-12T15:20:10;97373.34;;;23.81;47.01
70506;BME280;58032;49.820;6.274;2022-09-12T15:22:42;97374.50;;;24.12;46.49
70506;BME280;58032;49.820;6.274;2022-09-12T15:25:12;97366.16;;;24.22;49.72
70506;BME280;58032;49.820;6.274;2022-09-12T15:27:44;97375.72;;;24.38;45.28
70506;BME280;58032;49.820;6.274;2022-09-12T15:30:13;97367.09;;;24.59;45.11
70506;BME280;58032;49.820;6.274;2022-09-12T15:32:43;97364.88;;;24.44;45.87
70506;BME280;58032;49.820;6.274;2022-09-12T15:35:29;97356.88;;;23.95;50.44
70506;BME280;58032;49.820;6.274;2022-09-12T15:38:03;97350.25;;;24.21;49.18
70506;BME280;58032;49.820;6.274;2022-09-12T15:40:32;97344.50;;;24.42;47.82
70506;BME280;58032;49.820;6.274;2022-09-12T15:43:00;97354.16;;;24.53;47.67
70506;BME280;58032;49.820;6.274;2022-09-12T15:45:32;97353.75;;;24.27;46.54
70506;BME280;58032;49.820;6.274;2022-09-12T15:48:03;97350.84;;;24.06;50.50
70506;BME280;58032;49.820;6.274;2022-09-12T15:50:34;97353.34;;;24.44;47.18
70506;BME280;58032;49.820;6.274;2022-09-12T15:53:15;97345.78;;;23.85;51.59
70506;BME280;58032;49.820;6.274;2022-09-12T15:55:46;97344.34;;;24.27;48.79
70506;BME280;58032;49.820;6.274;2022-09-12T15:58:17;97348.19;;;24.08;46.46
70506;BME280;58032;49.820;6.274;2022-09-12T16:00:50;97352.75;;;24.25;48.78
70506;BME280;58032;49.820;6.274;2022-09-12T16:03:23;97346.41;;;24.40;49.67
70506;BME280;58032;49.820;6.274;2022-09-12T16:05:59;97339.94;;;24.68;51.08
70506;BME280;58032;49.820;6.274;2022-09-12T16:08:30;97343.06;;;24.14;47.22